sensor_id;sensor_type;location;lat;lon;timestamp;temperature;humidity
27940;DHT22;15275;51.716;14.324;2023-06-14T00:00:21;17.80;59.20
27940;DHT22;15275;51.716;14.324;2023-06-14T00:02:47;17.80;59.20
27940;DHT22;15275;51.716;14.324;2023-06-14T00:05:13;17.80;59.20
27940;DHT22;15275;51.716;14.324;2023-06-14T00:07:41;17.70;59.30
27940;DHT22;15275;51.716;14.324;2023-06-14T00:10:14;17.70;59.40
27940;DHT22;15275;51.716;14.324;2023-06-14T00:12:41;17.70;59.70
27940;DHT22;15275;51.716;14.324;2023-06-14T00:15:07;17.70;59.40
27940;DHT22;15275;51.716;14.324;2023-06-14T00:17:36;17.60;59.40
27940;DHT22;15275;51.716;14.324;2023-06-14T00:20:03;17.50;59.60
27940;DHT22;15275;51.716;14.324;2023-06-14T00:22:31;17.50;59.60
27940;DHT22;15275;51.716;14.324;2023-06-14T00:24:58;17.40;59.70
27940;DHT22;15275;51.716;14.324;2023-06-14T00:27:24;17.40;59.80
27940;DHT22;15275;51.716;14.324;2023-06-14T00:29:50;17.30;59.90
27940;DHT22;15275;51.716;14.324;2023-06-14T00:32:16;17.30;59.90
27940;DHT22;15275;51.716;14.324;2023-06-14T00:34:43;17.20;60.00
27940;DHT22;15275;51.716;14.324;2023-06-14T00:37:09;17.10;60.10
27940;DHT22;15275;51.716;14.324;2023-06-14T00:39:35;17.10;60.20
27940;DHT22;15275;51.716;14.324;2023-06-14T00:42:01;17.00;60.40
27940;DHT22;15275;51.716;14.324;2023-06-14T00:44:27;17.00;60.50
27940;DHT22;15275;51.716;14.324;2023-06-14T00:46:52;16.90;60.60
27940;DHT22;15275;51.716;14.324;2023-06-14T00:49:19;16.90;60.70
27940;DHT22;15275;51.716;14.324;2023-06-14T00:51:45;16.80;60.80
27940;DHT22;15275;51.716;14.324;2023-06-14T00:54:11;16.80;61.00
27940;DHT22;15275;51.716;14.324;2023-06-14T00:56:37;16.70;61.20
27940;DHT22;15275;51.716;14.324;2023-06-14T00:59:04;16.70;61.20
27940;DHT22;15275;51.716;14.324;2023-06-14T01:01:33;16.70;61.30
27940;DHT22;15275;51.716;14.324;2023-06-14T01:03:59;16.60;61.70
27940;DHT22;15275;51.716;14.324;2023-06-14T01:09:35;16.60;61.80
27940;DHT22;15275;51.716;14.324;2023-06-14T01:12:18;16.60;62.50
27940;DHT22;15275;51.716;14.324;2023-06-14T01:14:55;16.50;62.10
27940;DHT22;15275;51.716;14.324;2023-06-14T01:17:22;16.50;61.70
27940;DHT22;15275;51.716;14.324;2023-06-14T01:19:51;16.40;61.80
27940;DHT22;15275;51.716;14.324;2023-06-14T01:22:26;16.40;62.00
27940;DHT22;15275;51.716;14.324;2023-06-14T01:24:53;16.40;61.90
27940;DHT22;15275;51.716;14.324;2023-06-14T01:27:29;16.40;62.00
27940;DHT22;15275;51.716;14.324;2023-06-14T01:29:58;16.40;62.70
27940;DHT22;15275;51.716;14.324;2023-06-14T01:32:27;16.30;62.10
27940;DHT22;15275;51.716;14.324;2023-06-14T01:34:54;16.30;62.30
27940;DHT22;15275;51.716;14.324;2023-06-14T01:37:20;16.20;62.40
27940;DHT22;15275;51.716;14.324;2023-06-14T01:39:48;16.20;62.60
27940;DHT22;15275;51.716;14.324;2023-06-14T01:42:15;16.10;62.70
27940;DHT22;15275;51.716;14.324;2023-06-14T01:44:43;16.10;62.80
27940;DHT22;15275;51.716;14.324;2023-06-14T01:47:10;16.00;62.90
27940;DHT22;15275;51.716;14.324;2023-06-14T01:49:36;16.00;63.00
27940;DHT22;15275;51.716;14.324;2023-06-14T01:52:04;16.00;63.10
27940;DHT22;15275;51.716;14.324;2023-06-14T01:54:30;15.90;63.20
27940;DHT22;15275;51.716;14.324;2023-06-14T01:56:56;15.90;63.20
27940;DHT22;15275;51.716;14.324;2023-06-14T01:59:22;15.80;63.30
27940;DHT22;15275;51.716;14.324;2023-06-14T02:01:48;15.80;63.40
27940;DHT22;15275;51.716;14.324;2023-06-14T02:04:14;15.80;63.50
27940;DHT22;15275;51.716;14.324;2023-06-14T02:06:40;15.70;63.60
27940;DHT22;15275;51.716;14.324;2023-06-14T02:09:05;15.70;63.70
27940;DHT22;15275;51.716;14.324;2023-06-14T02:11:31;15.60;63.80
27940;DHT22;15275;51.716;14.324;2023-06-14T02:13:57;15.60;64.00
27940;DHT22;15275;51.716;14.324;2023-06-14T02:16:25;15.60;64.10
27940;DHT22;15275;51.716;14.324;2023-06-14T02:18:53;15.60;64.20
27940;DHT22;15275;51.716;14.324;2023-06-14T02:21:19;15.50;64.30
27940;DHT22;15275;51.716;14.324;2023-06-14T02:23:45;15.50;64.40
27940;DHT22;15275;51.716;14.324;2023-06-14T02:26:11;15.50;64.50
27940;DHT22;15275;51.716;14.324;2023-06-14T02:28:37;15.50;64.60
27940;DHT22;15275;51.716;14.324;2023-06-14T02:31:03;15.40;64.80
27940;DHT22;15275;51.716;14.324;2023-06-14T02:33:28;15.40;64.80
27940;DHT22;15275;51.716;14.324;2023-06-14T02:35:54;15.40;64.80
27940;DHT22;15275;51.716;14.324;2023-06-14T02:38:21;15.40;65.00
27940;DHT22;15275;51.716;14.324;2023-06-14T02:40:48;15.40;65.10
27940;DHT22;15275;51.716;14.324;2023-06-14T02:43:13;15.40;65.10
27940;DHT22;15275;51.716;14.324;2023-06-14T02:45:39;15.30;65.10
27940;DHT22;15275;51.716;14.324;2023-06-14T02:48:05;15.30;65.10
27940;DHT22;15275;51.716;14.324;2023-06-14T02:50:31;15.30;65.20
27940;DHT22;15275;51.716;14.324;2023-06-14T02:52:57;15.20;65.30
27940;DHT22;15275;51.716;14.324;2023-06-14T02:55:23;15.20;65.40
27940;DHT22;15275;51.716;14.324;2023-06-14T02:57:49;15.20;65.40
27940;DHT22;15275;51.716;14.324;2023-06-14T03:00:16;15.10;65.50
27940;DHT22;15275;51.716;14.324;2023-06-14T03:02:42;15.10;65.70
27940;DHT22;15275;51.716;14.324;2023-06-14T03:05:08;15.10;65.80
27940;DHT22;15275;51.716;14.324;2023-06-14T03:07:35;15.10;66.00
27940;DHT22;15275;51.716;14.324;2023-06-14T03:10:01;15.00;66.20
27940;DHT22;15275;51.716;14.324;2023-06-14T03:12:26;15.00;66.20
27940;DHT22;15275;51.716;14.324;2023-06-14T03:14:52;15.00;66.20
27940;DHT22;15275;51.716;14.324;2023-06-14T03:17:18;14.90;66.40
27940;DHT22;15275;51.716;14.324;2023-06-14T03:19:45;14.90;66.50
27940;DHT22;15275;51.716;14.324;2023-06-14T03:22:10;14.90;66.60
27940;DHT22;15275;51.716;14.324;2023-06-14T03:24:37;14.90;66.70
27940;DHT22;15275;51.716;14.324;2023-06-14T03:27:03;14.90;66.90
27940;DHT22;15275;51.716;14.324;2023-06-14T03:29:29;14.90;67.00
27940;DHT22;15275;51.716;14.324;2023-06-14T03:32:01;14.90;67.00
27940;DHT22;15275;51.716;14.324;2023-06-14T03:34:28;14.90;67.40
27940;DHT22;15275;51.716;14.324;2023-06-14T03:36:53;14.90;67.10
27940;DHT22;15275;51.716;14.324;2023-06-14T03:39:20;14.90;67.20
27940;DHT22;15275;51.716;14.324;2023-06-14T03:41:46;15.00;67.30
27940;DHT22;15275;51.716;14.324;2023-06-14T03:44:15;15.00;67.40
27940;DHT22;15275;51.716;14.324;2023-06-14T03:46:42;15.00;67.50
27940;DHT22;15275;51.716;14.324;2023-06-14T03:49:08;15.10;67.40
27940;DHT22;15275;51.716;14.324;2023-06-14T03:51:34;15.10;67.50
27940;DHT22;15275;51.716;14.324;2023-06-14T03:54:01;15.10;67.60
27940;DHT22;15275;51.716;14.324;2023-06-14T03:56:26;15.20;67.60
27940;DHT22;15275;51.716;14.324;2023-06-14T03:58:52;15.30;67.70
27940;DHT22;15275;51.716;14.324;2023-06-14T04:01:18;15.40;67.70
27940;DHT22;15275;51.716;14.324;2023-06-14T04:03:44;15.40;67.50
27940;DHT22;15275;51.716;14.324;2023-06-14T04:06:09;15.50;67.40
27940;DHT22;15275;51.716;14.324;2023-06-14T04:08:35;15.50;67.40
27940;DHT22;15275;51.716;14.324;2023-06-14T04:11:02;15.60;67.40
27940;DHT22;15275;51.716;14.324;2023-06-14T04:13:27;15.60;67.40
27940;DHT22;15275;51.716;14.324;2023-06-14T04:15:53;15.60;67.30
27940;DHT22;15275;51.716;14.324;2023-06-14T04:18:19;15.70;67.30
27940;DHT22;15275;51.716;14.324;2023-06-14T04:20:46;15.70;67.40
27940;DHT22;15275;51.716;14.324;2023-06-14T04:23:16;15.70;67.60
27940;DHT22;15275;51.716;14.324;2023-06-14T04:25:47;15.80;67.80
27940;DHT22;15275;51.716;14.324;2023-06-14T04:28:15;15.90;67.40
27940;DHT22;15275;51.716;14.324;2023-06-14T04:30:44;15.90;67.50
27940;DHT22;15275;51.716;14.324;2023-06-14T04:33:10;16.00;67.70
27940;DHT22;15275;51.716;14.324;2023-06-14T04:35:36;16.20;67.70
27940;DHT22;15275;51.716;14.324;2023-06-14T04:38:06;16.30;68.00
27940;DHT22;15275;51.716;14.324;2023-06-14T04:40:35;16.50;67.80
27940;DHT22;15275;51.716;14.324;2023-06-14T04:43:08;16.70;67.40
27940;DHT22;15275;51.716;14.324;2023-06-14T04:45:38;16.90;67.10
27940;DHT22;15275;51.716;14.324;2023-06-14T04:48:05;17.10;66.70
27940;DHT22;15275;51.716;14.324;2023-06-14T04:50:32;17.20;66.40
27940;DHT22;15275;51.716;14.324;2023-06-14T04:52:59;17.30;65.90
27940;DHT22;15275;51.716;14.324;2023-06-14T04:55:25;17.40;65.80
27940;DHT22;15275;51.716;14.324;2023-06-14T04:57:51;17.40;65.60
27940;DHT22;15275;51.716;14.324;2023-06-14T05:00:19;17.50;65.70
27940;DHT22;15275;51.716;14.324;2023-06-14T05:02:46;17.50;65.80
27940;DHT22;15275;51.716;14.324;2023-06-14T05:05:12;17.70;65.60
27940;DHT22;15275;51.716;14.324;2023-06-14T05:07:38;17.80;65.70
27940;DHT22;15275;51.716;14.324;2023-06-14T05:10:05;17.90;65.80
27940;DHT22;15275;51.716;14.324;2023-06-14T05:12:31;18.10;66.10
27940;DHT22;15275;51.716;14.324;2023-06-14T05:14:57;18.40;66.20
27940;DHT22;15275;51.716;14.324;2023-06-14T05:17:24;18.80;66.00
27940;DHT22;15275;51.716;14.324;2023-06-14T05:19:50;19.10;65.20
27940;DHT22;15275;51.716;14.324;2023-06-14T05:22:16;19.30;64.30
27940;DHT22;15275;51.716;14.324;2023-06-14T05:24:41;19.40;63.40
27940;DHT22;15275;51.716;14.324;2023-06-14T05:27:07;19.50;63.00
27940;DHT22;15275;51.716;14.324;2023-06-14T05:29:33;19.50;62.50
27940;DHT22;15275;51.716;14.324;2023-06-14T05:31:59;19.40;62.10
27940;DHT22;15275;51.716;14.324;2023-06-14T05:34:25;19.30;62.00
27940;DHT22;15275;51.716;14.324;2023-06-14T05:36:51;19.20;62.10
27940;DHT22;15275;51.716;14.324;2023-06-14T05:39:16;19.10;62.20
27940;DHT22;15275;51.716;14.324;2023-06-14T05:41:42;19.00;62.40
27940;DHT22;15275;51.716;14.324;2023-06-14T05:44:09;18.90;62.50
27940;DHT22;15275;51.716;14.324;2023-06-14T05:46:34;18.80;62.70
27940;DHT22;15275;51.716;14.324;2023-06-14T05:49:00;18.80;63.10
27940;DHT22;15275;51.716;14.324;2023-06-14T05:51:26;18.80;63.20
27940;DHT22;15275;51.716;14.324;2023-06-14T05:53:52;18.70;63.30
27940;DHT22;15275;51.716;14.324;2023-06-14T05:56:18;18.70;63.30
27940;DHT22;15275;51.716;14.324;2023-06-14T05:58:45;18.70;63.30
27940;DHT22;15275;51.716;14.324;2023-06-14T06:01:11;18.70;63.30
27940;DHT22;15275;51.716;14.324;2023-06-14T06:03:38;18.60;63.30
27940;DHT22;15275;51.716;14.324;2023-06-14T06:06:04;18.60;63.30
27940;DHT22;15275;51.716;14.324;2023-06-14T06:08:30;18.60;63.50
27940;DHT22;15275;51.716;14.324;2023-06-14T06:10:57;18.60;63.40
27940;DHT22;15275;51.716;14.324;2023-06-14T06:13:23;18.50;63.40
27940;DHT22;15275;51.716;14.324;2023-06-14T06:15:49;18.50;63.50
27940;DHT22;15275;51.716;14.324;2023-06-14T06:18:15;18.40;63.70
27940;DHT22;15275;51.716;14.324;2023-06-14T06:20:41;18.40;63.80
27940;DHT22;15275;51.716;14.324;2023-06-14T06:23:06;18.30;63.90
27940;DHT22;15275;51.716;14.324;2023-06-14T06:25:33;18.30;64.10
27940;DHT22;15275;51.716;14.324;2023-06-14T06:27:59;18.30;64.10
27940;DHT22;15275;51.716;14.324;2023-06-14T06:30:25;18.30;64.10
27940;DHT22;15275;51.716;14.324;2023-06-14T06:32:51;18.30;64.00
27940;DHT22;15275;51.716;14.324;2023-06-14T06:35:18;18.20;64.10
27940;DHT22;15275;51.716;14.324;2023-06-14T06:37:44;18.20;64.20
27940;DHT22;15275;51.716;14.324;2023-06-14T06:40:10;18.20;64.20
27940;DHT22;15275;51.716;14.324;2023-06-14T06:42:36;18.20;64.30
27940;DHT22;15275;51.716;14.324;2023-06-14T06:45:02;18.10;64.30
27940;DHT22;15275;51.716;14.324;2023-06-14T06:47:28;18.10;64.30
27940;DHT22;15275;51.716;14.324;2023-06-14T06:49:54;18.10;64.40
27940;DHT22;15275;51.716;14.324;2023-06-14T06:52:20;18.10;64.50
27940;DHT22;15275;51.716;14.324;2023-06-14T06:54:46;18.10;64.50
27940;DHT22;15275;51.716;14.324;2023-06-14T06:57:12;18.20;64.70
27940;DHT22;15275;51.716;14.324;2023-06-14T06:59:38;18.20;64.70
27940;DHT22;15275;51.716;14.324;2023-06-14T07:02:04;18.20;64.80
27940;DHT22;15275;51.716;14.324;2023-06-14T07:04:30;18.30;64.90
27940;DHT22;15275;51.716;14.324;2023-06-14T07:06:57;18.30;65.30
27940;DHT22;15275;51.716;14.324;2023-06-14T07:09:22;18.40;65.40
27940;DHT22;15275;51.716;14.324;2023-06-14T07:11:49;18.50;65.40
27940;DHT22;15275;51.716;14.324;2023-06-14T07:14:16;18.60;65.30
27940;DHT22;15275;51.716;14.324;2023-06-14T07:16:42;18.60;65.20
27940;DHT22;15275;51.716;14.324;2023-06-14T07:19:08;18.70;65.20
27940;DHT22;15275;51.716;14.324;2023-06-14T07:21:36;18.80;65.10
27940;DHT22;15275;51.716;14.324;2023-06-14T07:24:06;18.90;64.90
27940;DHT22;15275;51.716;14.324;2023-06-14T07:26:33;19.00;65.00
27940;DHT22;15275;51.716;14.324;2023-06-14T07:28:59;19.00;64.90
27940;DHT22;15275;51.716;14.324;2023-06-14T07:31:25;19.10;65.00
27940;DHT22;15275;51.716;14.324;2023-06-14T07:33:52;19.20;65.10
27940;DHT22;15275;51.716;14.324;2023-06-14T07:36:17;19.30;65.20
27940;DHT22;15275;51.716;14.324;2023-06-14T07:38:43;19.40;65.10
27940;DHT22;15275;51.716;14.324;2023-06-14T07:41:10;19.50;64.90
27940;DHT22;15275;51.716;14.324;2023-06-14T07:43:36;19.80;64.50
27940;DHT22;15275;51.716;14.324;2023-06-14T07:46:02;19.80;64.60
27940;DHT22;15275;51.716;14.324;2023-06-14T07:48:28;19.90;64.50
27940;DHT22;15275;51.716;14.324;2023-06-14T07:50:54;20.00;64.50
27940;DHT22;15275;51.716;14.324;2023-06-14T07:53:20;20.10;64.40
27940;DHT22;15275;51.716;14.324;2023-06-14T07:55:46;20.20;64.50
27940;DHT22;15275;51.716;14.324;2023-06-14T07:58:13;20.30;64.30
27940;DHT22;15275;51.716;14.324;2023-06-14T08:00:38;20.40;64.50
27940;DHT22;15275;51.716;14.324;2023-06-14T08:03:04;20.50;64.40
27940;DHT22;15275;51.716;14.324;2023-06-14T08:05:30;20.70;64.10
27940;DHT22;15275;51.716;14.324;2023-06-14T08:07:56;20.80;64.20
27940;DHT22;15275;51.716;14.324;2023-06-14T08:10:23;20.90;64.00
27940;DHT22;15275;51.716;14.324;2023-06-14T08:12:48;21.00;63.40
27940;DHT22;15275;51.716;14.324;2023-06-14T08:15:18;21.10;63.20
27940;DHT22;15275;51.716;14.324;2023-06-14T08:17:44;21.20;63.00
27940;DHT22;15275;51.716;14.324;2023-06-14T08:20:11;21.30;63.00
27940;DHT22;15275;51.716;14.324;2023-06-14T08:22:38;21.40;62.90
27940;DHT22;15275;51.716;14.324;2023-06-14T08:25:08;21.50;62.50
27940;DHT22;15275;51.716;14.324;2023-06-14T08:27:34;21.50;62.40
27940;DHT22;15275;51.716;14.324;2023-06-14T08:30:01;21.60;62.20
27940;DHT22;15275;51.716;14.324;2023-06-14T08:32:27;21.60;62.00
27940;DHT22;15275;51.716;14.324;2023-06-14T08:34:53;21.60;62.00
27940;DHT22;15275;51.716;14.324;2023-06-14T08:37:19;21.60;62.00
27940;DHT22;15275;51.716;14.324;2023-06-14T08:39:46;21.70;62.00
27940;DHT22;15275;51.716;14.324;2023-06-14T08:42:12;21.70;62.00
27940;DHT22;15275;51.716;14.324;2023-06-14T08:44:39;21.70;61.90
27940;DHT22;15275;51.716;14.324;2023-06-14T08:47:07;21.80;61.90
27940;DHT22;15275;51.716;14.324;2023-06-14T08:49:36;21.80;61.60
27940;DHT22;15275;51.716;14.324;2023-06-14T08:52:05;21.80;61.40
27940;DHT22;15275;51.716;14.324;2023-06-14T08:54:34;21.80;61.20
27940;DHT22;15275;51.716;14.324;2023-06-14T08:57:02;21.80;60.90
27940;DHT22;15275;51.716;14.324;2023-06-14T08:59:30;21.80;60.90
27940;DHT22;15275;51.716;14.324;2023-06-14T09:01:59;21.80;61.00
27940;DHT22;15275;51.716;14.324;2023-06-14T09:04:25;21.80;61.20
27940;DHT22;15275;51.716;14.324;2023-06-14T09:06:55;21.80;61.10
27940;DHT22;15275;51.716;14.324;2023-06-14T09:09:22;21.90;61.00
27940;DHT22;15275;51.716;14.324;2023-06-14T09:11:52;21.90;60.90
27940;DHT22;15275;51.716;14.324;2023-06-14T09:14:19;22.00;61.30
27940;DHT22;15275;51.716;14.324;2023-06-14T09:16:45;22.00;61.10
27940;DHT22;15275;51.716;14.324;2023-06-14T09:19:21;22.10;60.80
27940;DHT22;15275;51.716;14.324;2023-06-14T09:21:49;22.20;60.30
27940;DHT22;15275;51.716;14.324;2023-06-14T09:24:15;22.20;60.40
27940;DHT22;15275;51.716;14.324;2023-06-14T09:26:41;22.20;60.30
27940;DHT22;15275;51.716;14.324;2023-06-14T09:29:07;22.20;60.10
27940;DHT22;15275;51.716;14.324;2023-06-14T09:31:32;22.20;60.00
27940;DHT22;15275;51.716;14.324;2023-06-14T09:33:58;22.30;60.00
27940;DHT22;15275;51.716;14.324;2023-06-14T09:36:27;22.30;59.80
27940;DHT22;15275;51.716;14.324;2023-06-14T09:38:58;22.30;59.80
27940;DHT22;15275;51.716;14.324;2023-06-14T09:41:39;22.40;59.90
27940;DHT22;15275;51.716;14.324;2023-06-14T09:44:07;22.50;59.30
27940;DHT22;15275;51.716;14.324;2023-06-14T09:46:35;22.50;59.40
27940;DHT22;15275;51.716;14.324;2023-06-14T09:49:02;22.60;58.90
27940;DHT22;15275;51.716;14.324;2023-06-14T09:51:29;22.60;59.00
27940;DHT22;15275;51.716;14.324;2023-06-14T09:54:02;22.60;58.60
27940;DHT22;15275;51.716;14.324;2023-06-14T09:56:37;22.60;58.10
27940;DHT22;15275;51.716;14.324;2023-06-14T09:59:06;22.60;58.30
27940;DHT22;15275;51.716;14.324;2023-06-14T10:01:38;22.60;58.00
27940;DHT22;15275;51.716;14.324;2023-06-14T10:04:09;22.60;58.10
27940;DHT22;15275;51.716;14.324;2023-06-14T10:06:45;22.50;57.90
27940;DHT22;15275;51.716;14.324;2023-06-14T10:09:11;22.50;57.90
27940;DHT22;15275;51.716;14.324;2023-06-14T10:11:38;22.50;58.10
27940;DHT22;15275;51.716;14.324;2023-06-14T10:14:10;22.40;58.10
27940;DHT22;15275;51.716;14.324;2023-06-14T10:17:00;22.40;58.20
27940;DHT22;15275;51.716;14.324;2023-06-14T10:19:41;22.40;57.80
27940;DHT22;15275;51.716;14.324;2023-06-14T10:22:14;22.40;57.80
27940;DHT22;15275;51.716;14.324;2023-06-14T10:24:45;22.30;58.00
27940;DHT22;15275;51.716;14.324;2023-06-14T10:27:16;22.30;57.90
27940;DHT22;15275;51.716;14.324;2023-06-14T10:32:24;22.20;58.10
27940;DHT22;15275;51.716;14.324;2023-06-14T10:35:01;22.10;58.20
27940;DHT22;15275;51.716;14.324;2023-06-14T10:37:31;22.00;58.20
27940;DHT22;15275;51.716;14.324;2023-06-14T10:39:57;22.00;58.50
27940;DHT22;15275;51.716;14.324;2023-06-14T10:42:36;22.00;58.70
27940;DHT22;15275;51.716;14.324;2023-06-14T10:45:02;22.00;58.90
27940;DHT22;15275;51.716;14.324;2023-06-14T10:47:32;22.00;58.90
27940;DHT22;15275;51.716;14.324;2023-06-14T10:50:08;22.10;59.00
27940;DHT22;15275;51.716;14.324;2023-06-14T10:52:40;22.10;58.80
27940;DHT22;15275;51.716;14.324;2023-06-14T10:55:13;22.20;58.90
27940;DHT22;15275;51.716;14.324;2023-06-14T11:00:23;22.30;59.10
27940;DHT22;15275;51.716;14.324;2023-06-14T11:11:32;22.60;58.60
27940;DHT22;15275;51.716;14.324;2023-06-14T11:14:01;22.60;58.60
27940;DHT22;15275;51.716;14.324;2023-06-14T11:16:27;22.60;58.70
27940;DHT22;15275;51.716;14.324;2023-06-14T11:18:55;22.60;58.80
27940;DHT22;15275;51.716;14.324;2023-06-14T11:21:20;22.60;58.90
27940;DHT22;15275;51.716;14.324;2023-06-14T11:23:50;22.60;58.60
27940;DHT22;15275;51.716;14.324;2023-06-14T11:26:27;22.50;58.50
27940;DHT22;15275;51.716;14.324;2023-06-14T11:28:58;22.50;58.50
27940;DHT22;15275;51.716;14.324;2023-06-14T11:31:26;22.50;58.70
27940;DHT22;15275;51.716;14.324;2023-06-14T11:33:57;22.50;58.70
27940;DHT22;15275;51.716;14.324;2023-06-14T11:36:26;22.50;58.60
27940;DHT22;15275;51.716;14.324;2023-06-14T11:39:02;22.50;58.70
27940;DHT22;15275;51.716;14.324;2023-06-14T11:41:36;22.50;58.70
27940;DHT22;15275;51.716;14.324;2023-06-14T11:44:03;22.60;58.80
27940;DHT22;15275;51.716;14.324;2023-06-14T11:46:29;22.60;59.10
27940;DHT22;15275;51.716;14.324;2023-06-14T11:48:55;22.70;58.50
27940;DHT22;15275;51.716;14.324;2023-06-14T11:51:21;22.80;58.50
27940;DHT22;15275;51.716;14.324;2023-06-14T11:53:47;22.90;58.40
27940;DHT22;15275;51.716;14.324;2023-06-14T11:56:13;23.00;58.50
27940;DHT22;15275;51.716;14.324;2023-06-14T11:58:39;23.20;58.60
27940;DHT22;15275;51.716;14.324;2023-06-14T12:01:05;23.30;58.10
27940;DHT22;15275;51.716;14.324;2023-06-14T12:03:32;23.50;57.80
27940;DHT22;15275;51.716;14.324;2023-06-14T12:06:08;23.60;57.70
27940;DHT22;15275;51.716;14.324;2023-06-14T12:08:35;23.70;56.70
27940;DHT22;15275;51.716;14.324;2023-06-14T12:11:11;23.70;56.70
27940;DHT22;15275;51.716;14.324;2023-06-14T12:13:39;23.80;57.20
27940;DHT22;15275;51.716;14.324;2023-06-14T12:16:09;23.80;57.20
27940;DHT22;15275;51.716;14.324;2023-06-14T12:18:37;23.90;57.00
27940;DHT22;15275;51.716;14.324;2023-06-14T12:21:08;24.00;57.10
27940;DHT22;15275;51.716;14.324;2023-06-14T12:23:48;24.10;57.20
27940;DHT22;15275;51.716;14.324;2023-06-14T12:26:19;24.20;56.50
27940;DHT22;15275;51.716;14.324;2023-06-14T12:28:47;24.30;56.00
27940;DHT22;15275;51.716;14.324;2023-06-14T12:31:15;24.40;55.90
27940;DHT22;15275;51.716;14.324;2023-06-14T12:33:42;24.60;55.40
27940;DHT22;15275;51.716;14.324;2023-06-14T12:36:09;24.70;55.30
27940;DHT22;15275;51.716;14.324;2023-06-14T12:38:36;24.80;55.30
27940;DHT22;15275;51.716;14.324;2023-06-14T12:41:03;24.90;54.60
27940;DHT22;15275;51.716;14.324;2023-06-14T12:43:29;25.10;54.40
27940;DHT22;15275;51.716;14.324;2023-06-14T12:45:55;25.10;53.90
27940;DHT22;15275;51.716;14.324;2023-06-14T12:48:21;25.20;54.00
27940;DHT22;15275;51.716;14.324;2023-06-14T12:50:48;25.30;54.20
27940;DHT22;15275;51.716;14.324;2023-06-14T12:53:13;25.50;54.20
27940;DHT22;15275;51.716;14.324;2023-06-14T12:55:40;25.60;53.60
27940;DHT22;15275;51.716;14.324;2023-06-14T12:58:06;25.70;53.10
27940;DHT22;15275;51.716;14.324;2023-06-14T13:00:32;25.70;52.70
27940;DHT22;15275;51.716;14.324;2023-06-14T13:02:58;25.70;52.40
27940;DHT22;15275;51.716;14.324;2023-06-14T13:05:24;25.70;52.20
27940;DHT22;15275;51.716;14.324;2023-06-14T13:07:50;25.60;52.00
27940;DHT22;15275;51.716;14.324;2023-06-14T13:10:17;25.60;51.80
27940;DHT22;15275;51.716;14.324;2023-06-14T13:12:43;25.50;51.90
27940;DHT22;15275;51.716;14.324;2023-06-14T13:15:09;25.50;51.90
27940;DHT22;15275;51.716;14.324;2023-06-14T13:17:35;25.40;51.90
27940;DHT22;15275;51.716;14.324;2023-06-14T13:20:06;25.40;51.60
27940;DHT22;15275;51.716;14.324;2023-06-14T13:22:33;25.50;51.90
27940;DHT22;15275;51.716;14.324;2023-06-14T13:24:59;25.50;52.30
27940;DHT22;15275;51.716;14.324;2023-06-14T13:27:25;25.60;51.90
27940;DHT22;15275;51.716;14.324;2023-06-14T13:29:52;25.80;51.80
27940;DHT22;15275;51.716;14.324;2023-06-14T13:32:18;25.80;51.20
27940;DHT22;15275;51.716;14.324;2023-06-14T13:34:43;25.90;51.60
27940;DHT22;15275;51.716;14.324;2023-06-14T13:37:09;25.90;51.30
27940;DHT22;15275;51.716;14.324;2023-06-14T13:39:35;26.00;51.30
27940;DHT22;15275;51.716;14.324;2023-06-14T13:42:03;26.10;51.00
27940;DHT22;15275;51.716;14.324;2023-06-14T13:44:29;26.10;50.90
27940;DHT22;15275;51.716;14.324;2023-06-14T13:46:55;26.20;50.50
27940;DHT22;15275;51.716;14.324;2023-06-14T13:49:20;26.20;50.50
27940;DHT22;15275;51.716;14.324;2023-06-14T13:51:47;26.10;50.50
27940;DHT22;15275;51.716;14.324;2023-06-14T13:54:13;26.10;50.30
27940;DHT22;15275;51.716;14.324;2023-06-14T13:56:42;26.10;50.10
27940;DHT22;15275;51.716;14.324;2023-06-14T13:59:07;26.10;50.00
27940;DHT22;15275;51.716;14.324;2023-06-14T14:01:33;26.10;49.80
27940;DHT22;15275;51.716;14.324;2023-06-14T14:03:59;26.10;49.70
27940;DHT22;15275;51.716;14.324;2023-06-14T14:06:26;26.20;50.00
27940;DHT22;15275;51.716;14.324;2023-06-14T14:08:52;26.20;50.00
27940;DHT22;15275;51.716;14.324;2023-06-14T14:11:18;26.30;49.50
27940;DHT22;15275;51.716;14.324;2023-06-14T14:13:46;26.40;49.30
27940;DHT22;15275;51.716;14.324;2023-06-14T14:16:12;26.40;49.10
27940;DHT22;15275;51.716;14.324;2023-06-14T14:18:39;26.50;48.90
27940;DHT22;15275;51.716;14.324;2023-06-14T14:21:05;26.40;48.30
27940;DHT22;15275;51.716;14.324;2023-06-14T14:23:31;26.30;48.50
27940;DHT22;15275;51.716;14.324;2023-06-14T14:25:57;26.30;48.20
27940;DHT22;15275;51.716;14.324;2023-06-14T14:28:23;26.20;48.60
27940;DHT22;15275;51.716;14.324;2023-06-14T14:30:49;26.20;48.70
27940;DHT22;15275;51.716;14.324;2023-06-14T14:33:15;26.10;49.10
27940;DHT22;15275;51.716;14.324;2023-06-14T14:35:43;26.00;49.20
27940;DHT22;15275;51.716;14.324;2023-06-14T14:38:13;26.00;49.30
27940;DHT22;15275;51.716;14.324;2023-06-14T14:40:41;25.90;49.20
27940;DHT22;15275;51.716;14.324;2023-06-14T14:43:07;25.90;49.40
27940;DHT22;15275;51.716;14.324;2023-06-14T14:45:33;25.80;49.60
27940;DHT22;15275;51.716;14.324;2023-06-14T14:48:00;25.80;49.10
27940;DHT22;15275;51.716;14.324;2023-06-14T14:50:27;25.70;48.50
27940;DHT22;15275;51.716;14.324;2023-06-14T14:52:53;25.70;48.50
27940;DHT22;15275;51.716;14.324;2023-06-14T14:55:19;25.70;48.30
27940;DHT22;15275;51.716;14.324;2023-06-14T14:57:46;25.70;48.30
27940;DHT22;15275;51.716;14.324;2023-06-14T15:00:13;25.70;48.00
27940;DHT22;15275;51.716;14.324;2023-06-14T15:02:39;25.60;47.90
27940;DHT22;15275;51.716;14.324;2023-06-14T15:05:05;25.60;48.10
27940;DHT22;15275;51.716;14.324;2023-06-14T15:07:31;25.50;48.30
27940;DHT22;15275;51.716;14.324;2023-06-14T15:09:59;25.50;48.50
27940;DHT22;15275;51.716;14.324;2023-06-14T15:12:25;25.50;48.40
27940;DHT22;15275;51.716;14.324;2023-06-14T15:14:52;25.40;48.30
27940;DHT22;15275;51.716;14.324;2023-06-14T15:17:19;25.40;48.70
27940;DHT22;15275;51.716;14.324;2023-06-14T15:19:46;25.30;48.80
27940;DHT22;15275;51.716;14.324;2023-06-14T15:22:12;25.30;49.00
27940;DHT22;15275;51.716;14.324;2023-06-14T15:24:40;25.30;49.20
27940;DHT22;15275;51.716;14.324;2023-06-14T15:27:07;25.30;49.40
27940;DHT22;15275;51.716;14.324;2023-06-14T15:29:34;25.40;49.70
27940;DHT22;15275;51.716;14.324;2023-06-14T15:32:03;25.50;49.50